createdAt,value
2022-12-26T00:01:25.746Z,22.38
2022-12-26T00:03:54.477Z,25.42
2022-12-26T00:06:26.966Z,27.00
2022-12-26T00:08:56.047Z,23.10
2022-12-26T00:11:25.087Z,27.20
2022-12-26T00:13:55.517Z,26.70
2022-12-26T00:16:24.409Z,23.75
2022-12-26T00:18:52.917Z,23.27
2022-12-26T00:21:21.807Z,25.40
2022-12-26T00:23:51.883Z,24.25
2022-12-26T00:26:21.565Z,25.33
2022-12-26T00:28:49.938Z,23.30
2022-12-26T00:31:20.939Z,22.75
2022-12-26T00:33:49.785Z,23.15
2022-12-26T00:36:19.847Z,22.08
2022-12-26T00:38:48.571Z,19.88
2022-12-26T00:41:19.281Z,23.23
2022-12-26T00:43:47.567Z,21.05
2022-12-26T00:46:15.783Z,23.35
2022-12-26T00:48:44.053Z,25.88
2022-12-26T00:51:12.323Z,28.02
2022-12-26T00:53:40.992Z,22.20
2022-12-26T00:56:09.291Z,25.42
2022-12-26T00:58:38.960Z,27.42
2022-12-26T01:01:08.912Z,27.65
2022-12-26T01:03:37.117Z,24.88
2022-12-26T01:06:06.051Z,23.33
2022-12-26T01:08:34.236Z,24.25
2022-12-26T01:11:05.595Z,24.95
2022-12-26T01:13:33.869Z,28.15
2022-12-26T01:16:03.816Z,34.50
2022-12-26T01:18:31.964Z,29.55
2022-12-26T01:21:01.146Z,29.33
2022-12-26T01:23:29.709Z,32.55
2022-12-26T01:26:17.793Z,33.60
2022-12-26T01:28:45.924Z,32.53
2022-12-26T01:31:15.473Z,29.52
2022-12-26T01:33:43.559Z,29.98
2022-12-26T01:36:12.411Z,26.73
2022-12-26T01:38:40.534Z,25.60
2022-12-26T01:41:19.631Z,24.20
2022-12-26T01:43:57.641Z,23.02
2022-12-26T01:46:32.201Z,23.25
2022-12-26T01:49:03.119Z,24.65
2022-12-26T01:51:35.147Z,24.90
2022-12-26T01:54:39.735Z,28.73
2022-12-26T01:56:54.551Z,25.65
2022-12-26T01:59:26.223Z,24.08
2022-12-26T02:01:56.684Z,27.88
2022-12-26T02:04:47.885Z,25.73
2022-12-26T02:07:15.945Z,28.17
2022-12-26T02:09:45.575Z,23.35
2022-12-26T02:12:35.769Z,23.48
2022-12-26T02:15:09.778Z,24.73
2022-12-26T02:17:40.576Z,20.80
2022-12-26T02:20:18.285Z,19.35
2022-12-26T02:23:19.222Z,21.25
2022-12-26T02:26:29.166Z,18.60
2022-12-26T02:29:25.855Z,18.38
2022-12-26T02:32:04.839Z,17.02
2022-12-26T02:34:46.043Z,16.73
2022-12-26T02:37:25.636Z,16.40
2022-12-26T02:40:13.257Z,16.77
2022-12-26T02:42:55.178Z,17.08
2022-12-26T02:45:48.051Z,16.52
2022-12-26T02:48:25.153Z,16.98
2022-12-26T02:51:23.117Z,18.05
2022-12-26T02:54:18.914Z,16.02
2022-12-26T02:57:10.114Z,16.52
2022-12-26T03:00:04.955Z,16.92
2022-12-26T03:02:56.230Z,17.17
2022-12-26T03:05:48.621Z,16.80
2022-12-26T03:08:41.383Z,17.00
2022-12-26T03:11:27.201Z,17.35
2022-12-26T03:14:00.839Z,16.10
2022-12-26T03:16:48.218Z,14.40
2022-12-26T03:19:16.783Z,15.02
2022-12-26T03:21:48.448Z,13.77
2022-12-26T03:24:18.227Z,12.75
2022-12-26T03:26:51.954Z,12.45
2022-12-26T03:29:39.616Z,12.43
2022-12-26T03:32:12.031Z,11.93
2022-12-26T03:34:43.197Z,12.60
2022-12-26T03:37:47.445Z,12.55
2022-12-26T03:40:43.249Z,12.52
2022-12-26T03:43:39.531Z,12.65
2022-12-26T03:46:36.073Z,12.95
2022-12-26T03:49:27.995Z,13.40
2022-12-26T03:52:19.061Z,12.35
2022-12-26T03:55:16.154Z,12.77
2022-12-26T03:58:07.020Z,12.30
2022-12-26T04:00:54.501Z,12.43
2022-12-26T04:03:42.200Z,13.05
2022-12-26T04:06:36.302Z,13.13
2022-12-26T04:09:28.759Z,12.82
2022-12-26T04:12:19.933Z,13.13
2022-12-26T04:15:10.155Z,13.65
2022-12-26T04:17:59.916Z,13.95
2022-12-26T04:20:34.091Z,13.48
2022-12-26T04:23:24.700Z,14.43
2022-12-26T04:26:17.965Z,13.68
2022-12-26T04:29:05.064Z,15.13
2022-12-26T04:31:53.467Z,14.70
2022-12-26T04:34:44.512Z,14.73
2022-12-26T04:37:36.352Z,15.13
2022-12-26T04:40:23.099Z,15.98
2022-12-26T04:43:47.588Z,16.02
2022-12-26T04:45:58.409Z,14.77
2022-12-26T04:48:44.347Z,15.57
2022-12-26T04:51:12.421Z,17.02
2022-12-26T04:53:40.463Z,15.48
2022-12-26T04:56:09.766Z,17.55
2022-12-26T04:58:37.865Z,16.77
2022-12-26T05:01:21.219Z,17.00
2022-12-26T05:04:06.573Z,16.92
2022-12-26T05:06:51.836Z,17.20
2022-12-26T05:09:36.211Z,16.40
2022-12-26T05:12:05.140Z,17.52
2022-12-26T05:14:35.876Z,17.48
2022-12-26T05:17:23.615Z,18.58
2022-12-26T05:20:08.959Z,17.85
2022-12-26T05:22:58.544Z,19.15
2022-12-26T05:25:47.520Z,19.98
2022-12-26T05:28:34.201Z,19.42
2022-12-26T05:31:03.345Z,20.50
2022-12-26T05:33:50.768Z,21.40
2022-12-26T05:36:21.574Z,20.35
2022-12-26T05:38:50.198Z,21.95
2022-12-26T05:41:19.713Z,21.50
2022-12-26T05:43:47.997Z,22.23
2022-12-26T05:46:16.471Z,22.50
2022-12-26T05:48:46.186Z,22.63
2022-12-26T05:51:14.726Z,22.90
2022-12-26T05:53:43.015Z,23.33
2022-12-26T05:56:13.425Z,21.42
2022-12-26T05:58:42.146Z,22.45
2022-12-26T06:01:12.348Z,23.73
2022-12-26T06:03:41.747Z,22.20
2022-12-26T06:06:12.039Z,21.88
2022-12-26T06:08:40.854Z,21.88
2022-12-26T06:11:10.829Z,21.67
2022-12-26T06:13:39.756Z,23.50
2022-12-26T06:16:09.419Z,21.88
2022-12-26T06:18:38.132Z,23.92
2022-12-26T06:21:07.427Z,20.50
2022-12-26T06:23:37.794Z,22.45
2022-12-26T06:26:07.305Z,20.98
2022-12-26T06:28:35.920Z,19.90
2022-12-26T06:31:05.106Z,20.30
2022-12-26T06:33:33.445Z,21.00
2022-12-26T06:36:07.358Z,20.40
2022-12-26T06:38:37.831Z,18.83
2022-12-26T06:41:06.942Z,20.30
2022-12-26T06:43:35.301Z,19.85
2022-12-26T06:46:04.890Z,19.73
2022-12-26T06:48:33.982Z,21.00
2022-12-26T06:51:05.014Z,19.58
2022-12-26T06:53:36.459Z,18.25
2022-12-26T06:56:09.023Z,18.40
2022-12-26T06:58:37.554Z,18.85
2022-12-26T07:01:07.415Z,18.80
2022-12-26T07:03:37.208Z,18.05
2022-12-26T07:06:06.959Z,18.52
2022-12-26T07:08:36.717Z,18.92
2022-12-26T07:11:05.604Z,19.45
2022-12-26T07:13:33.972Z,18.25
2022-12-26T07:16:02.338Z,18.35
2022-12-26T07:18:30.639Z,18.63
2022-12-26T07:20:58.963Z,18.48
2022-12-26T07:23:27.267Z,17.98
2022-12-26T07:25:56.996Z,20.33
2022-12-26T07:28:25.293Z,18.42
2022-12-26T07:30:53.915Z,18.27
2022-12-26T07:33:22.584Z,18.40
2022-12-26T07:35:51.047Z,17.98
2022-12-26T07:38:19.316Z,18.63
2022-12-26T07:40:48.039Z,18.75
2022-12-26T07:43:17.649Z,17.50
2022-12-26T07:45:46.162Z,18.05
2022-12-26T07:48:14.536Z,18.25
2022-12-26T07:50:45.608Z,18.13
2022-12-26T07:53:14.146Z,17.83
2022-12-26T07:55:42.441Z,17.08
2022-12-26T07:58:10.821Z,16.77
2022-12-26T08:00:40.476Z,16.00
2022-12-26T08:03:10.939Z,16.65
2022-12-26T08:05:39.895Z,16.00
2022-12-26T08:08:08.255Z,16.77
2022-12-26T08:10:36.511Z,16.15
2022-12-26T08:13:04.902Z,15.93
2022-12-26T08:15:33.983Z,15.73
2022-12-26T08:18:03.703Z,15.15
2022-12-26T08:20:32.076Z,13.18
2022-12-26T08:23:00.659Z,14.43
2022-12-26T08:25:29.230Z,14.80
2022-12-26T08:27:57.569Z,13.40
2022-12-26T08:30:25.984Z,13.10
2022-12-26T08:32:54.380Z,13.70
2022-12-26T08:35:24.154Z,13.52
2022-12-26T08:37:52.430Z,12.50
2022-12-26T08:40:40.054Z,13.80
2022-12-26T08:46:04.706Z,13.40
2022-12-26T08:48:33.728Z,12.52
2022-12-26T08:51:06.223Z,12.80
2022-12-26T08:53:36.125Z,13.88
2022-12-26T08:56:05.901Z,14.38
2022-12-26T08:58:35.421Z,14.65
2022-12-26T09:01:08.651Z,14.40
2022-12-26T09:03:37.162Z,14.88
2022-12-26T09:06:07.496Z,13.95
2022-12-26T09:08:37.289Z,15.57
2022-12-26T09:11:06.817Z,15.27
2022-12-26T09:13:35.842Z,14.13
2022-12-26T09:16:08.927Z,15.45
2022-12-26T09:18:37.711Z,15.05
2022-12-26T09:21:09.719Z,14.98
2022-12-26T09:23:39.386Z,14.75
2022-12-26T09:26:09.846Z,15.13
2022-12-26T09:28:38.473Z,14.93
2022-12-26T09:31:08.570Z,14.07
2022-12-26T09:33:37.787Z,14.85
2022-12-26T09:36:14.297Z,13.13
2022-12-26T09:38:44.065Z,13.32
2022-12-26T09:41:30.441Z,13.77
2022-12-26T09:44:07.056Z,13.30
2022-12-26T09:46:40.054Z,12.27
2022-12-26T09:49:13.657Z,12.82
2022-12-26T09:51:47.350Z,10.98
2022-12-26T09:54:23.241Z,10.95
2022-12-26T09:57:02.416Z,10.85
2022-12-26T09:59:35.667Z,11.27
2022-12-26T10:02:04.188Z,9.82
2022-12-26T10:04:32.547Z,10.73
2022-12-26T10:07:13.708Z,10.65
2022-12-26T10:09:54.198Z,10.55
2022-12-26T10:12:37.167Z,9.85
2022-12-26T10:15:20.088Z,9.38
2022-12-26T10:17:57.333Z,8.75
2022-12-26T10:20:32.737Z,8.57
2022-12-26T10:23:18.832Z,6.97
2022-12-26T10:25:49.620Z,7.60
2022-12-26T10:28:26.837Z,6.90
2022-12-26T10:30:57.472Z,6.85
2022-12-26T10:33:34.666Z,6.35
2022-12-26T10:36:03.786Z,5.90
2022-12-26T10:38:37.379Z,5.43
2022-12-26T10:41:14.178Z,4.90
2022-12-26T10:43:45.095Z,4.53
2022-12-26T10:46:46.084Z,4.30
2022-12-26T10:49:17.225Z,4.70
2022-12-26T10:51:45.819Z,3.35
2022-12-26T10:54:18.521Z,3.15
2022-12-26T10:57:11.996Z,2.40
2022-12-26T10:59:46.181Z,1.90
2022-12-26T11:02:26.738Z,1.95
2022-12-26T11:05:33.469Z,1.98
2022-12-26T11:07:54.994Z,2.15
2022-12-26T11:10:29.280Z,2.10
2022-12-26T11:13:01.250Z,2.42
2022-12-26T11:15:33.646Z,1.73
2022-12-26T11:18:20.819Z,2.33
2022-12-26T11:20:50.035Z,2.10
2022-12-26T11:23:27.794Z,1.77
2022-12-26T11:25:59.227Z,1.98
2022-12-26T11:28:32.339Z,1.85
2022-12-26T11:31:02.527Z,2.28
2022-12-26T11:33:33.981Z,2.08
2022-12-26T11:36:12.965Z,1.70
2022-12-26T11:38:50.518Z,1.95
2022-12-26T11:41:36.661Z,1.92
2022-12-26T11:44:19.322Z,1.85
2022-12-26T11:46:51.136Z,1.45
2022-12-26T11:49:23.979Z,2.00
2022-12-26T11:51:58.699Z,2.60
2022-12-26T11:54:35.184Z,2.42
2022-12-26T11:57:22.229Z,1.80
2022-12-26T11:59:52.882Z,1.83
2022-12-26T12:02:31.360Z,1.65
2022-12-26T12:05:03.833Z,2.13
2022-12-26T12:07:51.325Z,1.90
2022-12-26T12:10:50.735Z,1.80
2022-12-26T12:13:32.688Z,2.08
2022-12-26T12:16:10.190Z,1.98
2022-12-26T12:18:51.415Z,1.90
2022-12-26T12:21:31.990Z,1.42
2022-12-26T12:24:22.703Z,1.70
2022-12-26T12:27:04.981Z,1.75
2022-12-26T12:30:04.011Z,1.55
2022-12-26T12:32:39.051Z,2.13
2022-12-26T12:35:33.317Z,1.67
2022-12-26T12:38:15.662Z,1.60
2022-12-26T12:40:52.925Z,1.55
2022-12-26T12:43:30.752Z,1.73
2022-12-26T12:46:09.734Z,1.83
2022-12-26T12:49:03.550Z,1.40
2022-12-26T12:51:42.262Z,1.73
2022-12-26T12:54:40.049Z,2.10
2022-12-26T12:57:16.908Z,1.70
2022-12-26T12:59:55.729Z,2.20
2022-12-26T13:02:31.789Z,1.58
2022-12-26T13:05:09.529Z,1.88
2022-12-26T13:07:46.889Z,2.13
2022-12-26T13:10:20.656Z,2.20
2022-12-26T13:12:50.325Z,2.20
2022-12-26T13:15:27.500Z,2.10
2022-12-26T13:18:01.788Z,2.63
2022-12-26T13:20:38.058Z,2.25
2022-12-26T13:23:29.928Z,2.53
2022-12-26T13:26:07.332Z,2.33
2022-12-26T13:28:40.941Z,2.20
2022-12-26T13:31:09.082Z,2.50
2022-12-26T13:33:38.612Z,2.33
2022-12-26T13:36:07.965Z,1.98
2022-12-26T13:39:13.275Z,2.28
2022-12-26T13:42:05.572Z,2.63
2022-12-26T13:44:33.961Z,2.35
2022-12-26T13:47:02.109Z,2.10
2022-12-26T13:49:37.133Z,2.53
2022-12-26T13:52:33.770Z,2.40
2022-12-26T13:55:43.963Z,3.05
2022-12-26T13:58:38.480Z,2.30
2022-12-26T14:01:18.670Z,2.35
2022-12-26T14:04:02.848Z,2.80
2022-12-26T14:07:05.039Z,2.60
2022-12-26T14:09:59.543Z,2.67
2022-12-26T14:12:44.507Z,3.30
2022-12-26T14:15:27.027Z,2.42
2022-12-26T14:18:05.182Z,2.38
2022-12-26T14:20:42.550Z,2.22
2022-12-26T14:23:39.573Z,2.65
2022-12-26T14:26:19.191Z,2.83
2022-12-26T14:28:55.678Z,2.63
2022-12-26T14:31:42.067Z,2.35
2022-12-26T14:34:22.442Z,3.28
2022-12-26T14:36:57.772Z,2.47
2022-12-26T14:39:37.055Z,2.97
2022-12-26T14:42:39.531Z,2.20
2022-12-26T14:45:36.659Z,2.70
2022-12-26T14:48:25.184Z,2.60
2022-12-26T14:50:55.402Z,2.28
2022-12-26T14:53:34.880Z,2.88
2022-12-26T14:56:26.711Z,2.67
2022-12-26T14:59:27.787Z,2.53
2022-12-26T15:02:12.031Z,3.03
2022-12-26T15:04:53.924Z,2.75
2022-12-26T15:07:51.978Z,3.05
2022-12-26T15:10:54.030Z,2.88
2022-12-26T15:13:57.570Z,2.50
2022-12-26T15:16:44.081Z,2.78
2022-12-26T15:19:56.368Z,2.33
2022-12-26T15:22:59.523Z,2.88
2022-12-26T15:26:10.711Z,2.20
2022-12-26T15:29:04.936Z,2.33
2022-12-26T15:31:49.249Z,2.78
2022-12-26T15:34:45.847Z,3.05
2022-12-26T15:37:25.673Z,2.63
2022-12-26T15:39:58.664Z,2.42
2022-12-26T15:42:39.775Z,2.65
2022-12-26T15:45:27.986Z,2.72
2022-12-26T15:48:05.675Z,2.72
2022-12-26T15:50:42.553Z,3.05
2022-12-26T15:53:20.489Z,3.42
2022-12-26T15:56:12.012Z,2.80
2022-12-26T15:59:08.971Z,2.53
2022-12-26T16:01:40.827Z,3.50
2022-12-26T16:04:18.569Z,3.40
2022-12-26T16:07:08.224Z,3.00
2022-12-26T16:09:43.605Z,2.88
2022-12-26T16:12:27.529Z,2.28
2022-12-26T16:15:14.631Z,3.13
2022-12-26T16:17:44.011Z,3.27
2022-12-26T16:20:41.902Z,3.40
2022-12-26T16:23:15.639Z,3.60
2022-12-26T16:25:48.310Z,3.20
2022-12-26T16:28:17.841Z,3.50
2022-12-26T16:30:46.063Z,3.83
2022-12-26T16:33:15.632Z,3.60
2022-12-26T16:35:45.431Z,3.50
2022-12-26T16:38:16.390Z,3.00
2022-12-26T16:40:46.126Z,3.03
2022-12-26T16:43:34.580Z,3.33
2022-12-26T16:46:05.886Z,3.10
2022-12-26T16:48:37.162Z,3.03
2022-12-26T16:51:09.304Z,2.93
2022-12-26T16:53:45.374Z,3.17
2022-12-26T16:56:27.677Z,2.67
2022-12-26T16:59:04.577Z,2.90
2022-12-26T17:01:34.708Z,2.80
2022-12-26T17:04:05.549Z,3.23
2022-12-26T17:06:38.116Z,2.90
2022-12-26T17:09:09.748Z,3.00
2022-12-26T17:11:40.476Z,3.13
2022-12-26T17:14:18.739Z,3.17
2022-12-26T17:16:46.846Z,2.90
2022-12-26T17:19:20.135Z,3.50
2022-12-26T17:22:23.859Z,2.50
2022-12-26T17:24:57.719Z,2.90
2022-12-26T17:27:27.649Z,2.90
2022-12-26T17:30:01.050Z,3.00
2022-12-26T17:32:36.450Z,2.90
2022-12-26T17:35:07.692Z,3.00
2022-12-26T17:37:36.352Z,2.87
2022-12-26T17:40:19.669Z,3.63
2022-12-26T17:42:50.272Z,2.93
2022-12-26T17:45:20.130Z,3.40
2022-12-26T17:47:48.717Z,2.87
2022-12-26T17:50:16.812Z,4.00
2022-12-26T17:52:44.946Z,4.80
2022-12-26T17:55:19.848Z,3.63
2022-12-26T17:57:48.657Z,3.00
2022-12-26T18:00:19.275Z,2.77
2022-12-26T18:02:47.551Z,2.93
2022-12-26T18:05:15.849Z,3.37
2022-12-26T18:07:44.970Z,3.20
2022-12-26T18:10:20.563Z,2.50
2022-12-26T18:12:49.248Z,2.97
2022-12-26T18:15:17.783Z,3.13
2022-12-26T18:17:46.963Z,3.00
2022-12-26T18:20:18.194Z,2.67
2022-12-26T18:22:47.668Z,2.70
2022-12-26T18:25:19.086Z,3.13
2022-12-26T18:27:47.725Z,3.17
2022-12-26T18:30:18.189Z,3.50
2022-12-26T18:32:47.494Z,3.00
2022-12-26T18:35:15.890Z,3.30
2022-12-26T18:37:47.919Z,2.60
2022-12-26T18:40:28.791Z,3.03
2022-12-26T18:42:57.166Z,2.83
2022-12-26T18:45:25.925Z,2.87
2022-12-26T18:47:54.106Z,3.13
2022-12-26T18:50:22.257Z,2.73
2022-12-26T18:52:53.729Z,2.70
2022-12-26T18:55:25.368Z,3.00
2022-12-26T18:57:54.212Z,5.80
2022-12-26T19:00:23.129Z,4.97
2022-12-26T19:02:52.169Z,4.70
2022-12-26T19:05:22.095Z,4.60
2022-12-26T19:07:50.697Z,6.43
2022-12-26T19:10:20.731Z,4.63
2022-12-26T19:12:50.633Z,2.93
2022-12-26T19:15:18.845Z,3.20
2022-12-26T19:17:47.286Z,3.67
2022-12-26T19:20:20.739Z,3.30
2022-12-26T19:22:50.093Z,3.00
2022-12-26T19:25:19.696Z,3.30
2022-12-26T19:27:50.265Z,3.50
2022-12-26T19:30:19.638Z,3.00
2022-12-26T19:32:48.447Z,4.60
2022-12-26T19:35:17.542Z,3.03
2022-12-26T19:37:45.941Z,3.17
2022-12-26T19:40:21.228Z,3.17
2022-12-26T19:42:54.692Z,2.97
2022-12-26T19:45:23.197Z,2.57
2022-12-26T19:47:51.457Z,2.73
2022-12-26T19:50:19.823Z,2.63
2022-12-26T19:52:48.075Z,2.60
2022-12-26T19:55:16.362Z,2.40
2022-12-26T19:57:44.793Z,3.20
2022-12-26T20:00:15.167Z,2.90
2022-12-26T20:02:43.698Z,2.53
2022-12-26T20:05:12.124Z,2.83
2022-12-26T20:07:40.593Z,2.83
2022-12-26T20:10:09.246Z,2.97
2022-12-26T20:12:37.490Z,2.60
2022-12-26T20:15:06.636Z,2.60
2022-12-26T20:17:36.382Z,2.70
2022-12-26T20:20:05.139Z,2.70
2022-12-26T20:22:33.552Z,2.47
2022-12-26T20:25:01.881Z,2.80
2022-12-26T20:27:30.228Z,2.60
2022-12-26T20:29:58.458Z,3.00
2022-12-26T20:32:26.842Z,2.70
2022-12-26T20:34:56.446Z,2.80
2022-12-26T20:37:24.693Z,2.73
2022-12-26T20:39:53.086Z,2.60
2022-12-26T20:42:21.381Z,2.40
2022-12-26T20:44:49.650Z,2.93
2022-12-26T20:47:18.091Z,2.93
2022-12-26T20:49:46.408Z,3.00
2022-12-26T20:52:16.616Z,2.40
2022-12-26T20:54:46.951Z,2.63
2022-12-26T20:57:15.387Z,2.97
2022-12-26T20:59:43.841Z,2.73
2022-12-26T21:02:13.899Z,2.53
2022-12-26T21:04:42.425Z,2.73
2022-12-26T21:07:10.680Z,2.83
2022-12-26T21:09:45.989Z,2.67
2022-12-26T21:12:15.051Z,2.53
2022-12-26T21:14:43.553Z,2.80
2022-12-26T21:17:11.961Z,2.70
2022-12-26T21:19:40.325Z,3.07
2022-12-26T21:22:08.601Z,2.90
2022-12-26T21:24:37.082Z,3.23
2022-12-26T21:27:06.878Z,3.40
2022-12-26T21:29:36.361Z,2.90
2022-12-26T21:32:06.047Z,2.43
2022-12-26T21:34:35.023Z,2.97
2022-12-26T21:37:20.935Z,2.87
2022-12-26T21:39:50.720Z,3.17
2022-12-26T21:42:20.818Z,3.43
2022-12-26T21:44:49.177Z,3.07
2022-12-26T21:47:17.481Z,2.93
2022-12-26T21:49:45.780Z,3.10
2022-12-26T21:52:14.076Z,3.77
2022-12-26T21:55:00.254Z,4.63
2022-12-26T21:57:30.722Z,4.37
2022-12-26T21:59:59.613Z,5.30
2022-12-26T22:02:47.423Z,3.40
2022-12-26T22:05:16.678Z,4.50
2022-12-26T22:07:45.342Z,3.90
2022-12-26T22:10:34.784Z,3.57
2022-12-26T22:13:05.562Z,3.60
2022-12-26T22:15:51.841Z,2.97
2022-12-26T22:18:20.592Z,3.07
2022-12-26T22:20:49.081Z,3.00
2022-12-26T22:23:17.413Z,2.77
2022-12-26T22:25:45.673Z,3.33
2022-12-26T22:28:20.184Z,4.00
2022-12-26T22:30:51.956Z,2.87
2022-12-26T22:33:21.219Z,3.83
2022-12-26T22:35:49.781Z,2.83
2022-12-26T22:38:18.456Z,3.40
2022-12-26T22:40:55.144Z,3.43
2022-12-26T22:43:26.076Z,2.90
2022-12-26T22:45:55.081Z,3.83
2022-12-26T22:48:24.309Z,5.07
2022-12-26T22:50:55.143Z,5.93
2022-12-26T22:53:27.487Z,4.13
2022-12-26T22:55:59.611Z,4.67
2022-12-26T22:58:30.656Z,3.67
2022-12-26T23:00:59.921Z,4.13
2022-12-26T23:03:28.938Z,6.50
2022-12-26T23:05:58.021Z,4.30
2022-12-26T23:08:29.293Z,3.47
2022-12-26T23:10:59.481Z,3.23
2022-12-26T23:13:30.047Z,3.10
2022-12-26T23:16:03.525Z,3.00
2022-12-26T23:18:54.146Z,3.37
2022-12-26T23:21:42.319Z,3.00
2022-12-26T23:24:14.020Z,2.90
2022-12-26T23:26:44.298Z,3.30
2022-12-26T23:29:32.475Z,3.10
2022-12-26T23:32:01.150Z,3.13
2022-12-26T23:34:29.776Z,3.40
2022-12-26T23:36:58.152Z,3.00
2022-12-26T23:39:26.623Z,2.83
2022-12-26T23:41:54.945Z,2.43
2022-12-26T23:44:24.652Z,3.07
2022-12-26T23:46:53.012Z,2.73
2022-12-26T23:49:21.257Z,2.80
2022-12-26T23:51:49.558Z,3.13
2022-12-26T23:54:17.845Z,2.40
2022-12-26T23:56:46.297Z,2.83
2022-12-26T23:59:14.567Z,2.73
